sensor_id;sensor_type;location;lat;lon;timestamp;P1;durP1;ratioP1;P2;durP2;ratioP2
4565;SDS011;2295;51.050;14.608;2022-09-27T02:51:08;13.50;;;9.07;;
4565;SDS011;2295;51.050;14.608;2022-09-27T02:53:58;16.80;;;8.27;;
4565;SDS011;2295;51.050;14.608;2022-09-27T02:56:46;13.63;;;8.07;;
4565;SDS011;2295;51.050;14.608;2022-09-27T02:59:24;12.43;;;8.07;;
4565;SDS011;2295;51.050;14.608;2022-09-27T03:02:03;15.43;;;7.55;;
4565;SDS011;2295;51.050;14.608;2022-09-27T03:04:42;9.98;;;7.32;;
4565;SDS011;2295;51.050;14.608;2022-09-27T03:07:14;13.77;;;8.65;;
4565;SDS011;2295;51.050;14.608;2022-09-27T03:09:44;11.68;;;8.10;;
4565;SDS011;2295;51.050;14.608;2022-09-27T03:12:14;12.50;;;7.80;;
4565;SDS011;2295;51.050;14.608;2022-09-27T03:14:52;12.30;;;8.10;;
4565;SDS011;2295;51.050;14.608;2022-09-27T03:17:21;12.70;;;8.20;;
4565;SDS011;2295;51.050;14.608;2022-09-27T03:19:51;13.05;;;7.85;;
4565;SDS011;2295;51.050;14.608;2022-09-27T03:22:20;12.77;;;7.75;;
4565;SDS011;2295;51.050;14.608;2022-09-27T03:24:48;15.07;;;7.93;;
4565;SDS011;2295;51.050;14.608;2022-09-27T03:27:16;16.20;;;8.00;;
4565;SDS011;2295;51.050;14.608;2022-09-27T03:29:45;10.30;;;7.50;;
4565;SDS011;2295;51.050;14.608;2022-09-27T03:32:13;10.55;;;7.38;;
4565;SDS011;2295;51.050;14.608;2022-09-27T03:34:41;12.18;;;7.50;;
4565;SDS011;2295;51.050;14.608;2022-09-27T03:37:11;9.05;;;7.32;;
4565;SDS011;2295;51.050;14.608;2022-09-27T03:39:40;8.98;;;6.95;;
4565;SDS011;2295;51.050;14.608;2022-09-27T03:42:08;14.80;;;7.63;;
4565;SDS011;2295;51.050;14.608;2022-09-27T03:44:36;10.88;;;7.28;;
4565;SDS011;2295;51.050;14.608;2022-09-27T03:47:04;15.73;;;7.20;;
4565;SDS011;2295;51.050;14.608;2022-09-27T03:49:33;10.00;;;7.28;;
4565;SDS011;2295;51.050;14.608;2022-09-27T03:52:01;9.13;;;6.78;;
4565;SDS011;2295;51.050;14.608;2022-09-27T03:54:30;8.68;;;6.95;;
4565;SDS011;2295;51.050;14.608;2022-09-27T03:56:59;8.50;;;6.30;;
4565;SDS011;2295;51.050;14.608;2022-09-27T03:59:27;9.05;;;6.00;;
4565;SDS011;2295;51.050;14.608;2022-09-27T04:01:55;6.90;;;6.03;;
4565;SDS011;2295;51.050;14.608;2022-09-27T04:04:30;7.20;;;5.18;;
4565;SDS011;2295;51.050;14.608;2022-09-27T04:06:58;8.20;;;6.53;;
4565;SDS011;2295;51.050;14.608;2022-09-27T04:09:27;9.48;;;5.20;;
4565;SDS011;2295;51.050;14.608;2022-09-27T04:11:57;7.82;;;6.40;;
4565;SDS011;2295;51.050;14.608;2022-09-27T04:14:25;8.13;;;6.13;;
4565;SDS011;2295;51.050;14.608;2022-09-27T04:16:54;7.07;;;5.40;;
4565;SDS011;2295;51.050;14.608;2022-09-27T04:19:22;7.47;;;5.43;;
4565;SDS011;2295;51.050;14.608;2022-09-27T04:21:50;13.18;;;5.43;;
4565;SDS011;2295;51.050;14.608;2022-09-27T04:24:19;7.07;;;5.65;;
4565;SDS011;2295;51.050;14.608;2022-09-27T04:26:47;6.65;;;4.93;;
4565;SDS011;2295;51.050;14.608;2022-09-27T04:29:17;8.93;;;6.30;;
4565;SDS011;2295;51.050;14.608;2022-09-27T04:31:45;8.13;;;5.97;;
4565;SDS011;2295;51.050;14.608;2022-09-27T04:34:14;8.23;;;5.15;;
4565;SDS011;2295;51.050;14.608;2022-09-27T04:39:09;30.30;;;23.90;;
4565;SDS011;2295;51.050;14.608;2022-09-27T04:41:38;18.20;;;11.68;;
4565;SDS011;2295;51.050;14.608;2022-09-27T04:44:06;18.58;;;10.95;;
4565;SDS011;2295;51.050;14.608;2022-09-27T04:46:36;11.63;;;6.20;;
4565;SDS011;2295;51.050;14.608;2022-09-27T04:49:05;14.13;;;6.55;;
4565;SDS011;2295;51.050;14.608;2022-09-27T04:51:33;7.28;;;6.05;;
4565;SDS011;2295;51.050;14.608;2022-09-27T04:54:02;7.55;;;6.05;;
4565;SDS011;2295;51.050;14.608;2022-09-27T04:56:30;11.95;;;5.55;;
4565;SDS011;2295;51.050;14.608;2022-09-27T04:59:01;10.40;;;6.47;;
4565;SDS011;2295;51.050;14.608;2022-09-27T05:01:37;11.05;;;6.60;;
4565;SDS011;2295;51.050;14.608;2022-09-27T05:04:06;10.27;;;6.35;;
4565;SDS011;2295;51.050;14.608;2022-09-27T05:06:35;9.82;;;6.80;;
4565;SDS011;2295;51.050;14.608;2022-09-27T05:09:04;10.98;;;6.68;;
4565;SDS011;2295;51.050;14.608;2022-09-27T05:11:32;10.80;;;6.80;;
4565;SDS011;2295;51.050;14.608;2022-09-27T05:14:03;8.38;;;7.03;;
4565;SDS011;2295;51.050;14.608;2022-09-27T05:16:31;8.15;;;6.50;;
4565;SDS011;2295;51.050;14.608;2022-09-27T05:19:03;8.00;;;5.95;;
4565;SDS011;2295;51.050;14.608;2022-09-27T05:21:31;9.30;;;8.05;;
4565;SDS011;2295;51.050;14.608;2022-09-27T05:23:59;7.95;;;6.03;;
4565;SDS011;2295;51.050;14.608;2022-09-27T05:26:28;12.90;;;6.35;;
4565;SDS011;2295;51.050;14.608;2022-09-27T05:28:56;7.82;;;6.72;;
4565;SDS011;2295;51.050;14.608;2022-09-27T05:31:24;9.60;;;6.32;;
4565;SDS011;2295;51.050;14.608;2022-09-27T05:33:53;13.13;;;7.25;;
4565;SDS011;2295;51.050;14.608;2022-09-27T05:36:23;14.73;;;7.13;;
4565;SDS011;2295;51.050;14.608;2022-09-27T05:38:51;13.07;;;6.85;;
4565;SDS011;2295;51.050;14.608;2022-09-27T05:41:20;9.93;;;6.60;;
4565;SDS011;2295;51.050;14.608;2022-09-27T05:43:48;8.93;;;7.20;;
4565;SDS011;2295;51.050;14.608;2022-09-27T05:46:17;8.45;;;6.68;;
4565;SDS011;2295;51.050;14.608;2022-09-27T05:48:46;8.70;;;6.45;;
4565;SDS011;2295;51.050;14.608;2022-09-27T05:51:14;8.77;;;6.95;;
4565;SDS011;2295;51.050;14.608;2022-09-27T05:53:46;10.80;;;6.60;;
4565;SDS011;2295;51.050;14.608;2022-09-27T05:56:14;9.55;;;5.88;;
4565;SDS011;2295;51.050;14.608;2022-09-27T05:58:43;6.70;;;5.80;;
4565;SDS011;2295;51.050;14.608;2022-09-27T06:01:11;7.55;;;5.80;;
4565;SDS011;2295;51.050;14.608;2022-09-27T06:03:39;7.05;;;5.65;;
4565;SDS011;2295;51.050;14.608;2022-09-27T06:06:08;7.88;;;6.28;;
4565;SDS011;2295;51.050;14.608;2022-09-27T06:08:37;7.70;;;5.45;;
4565;SDS011;2295;51.050;14.608;2022-09-27T06:11:08;6.20;;;5.60;;
4565;SDS011;2295;51.050;14.608;2022-09-27T06:13:38;7.50;;;5.05;;
4565;SDS011;2295;51.050;14.608;2022-09-27T06:16:07;8.88;;;5.70;;
4565;SDS011;2295;51.050;14.608;2022-09-27T06:18:38;11.55;;;6.07;;
4565;SDS011;2295;51.050;14.608;2022-09-27T06:21:06;5.70;;;5.10;;
4565;SDS011;2295;51.050;14.608;2022-09-27T06:23:34;10.07;;;6.78;;
4565;SDS011;2295;51.050;14.608;2022-09-27T06:26:03;6.93;;;5.32;;
4565;SDS011;2295;51.050;14.608;2022-09-27T06:28:34;6.63;;;5.20;;
4565;SDS011;2295;51.050;14.608;2022-09-27T06:31:04;7.85;;;4.90;;
4565;SDS011;2295;51.050;14.608;2022-09-27T06:33:34;7.05;;;5.00;;
4565;SDS011;2295;51.050;14.608;2022-09-27T06:36:02;7.78;;;5.28;;
4565;SDS011;2295;51.050;14.608;2022-09-27T06:38:32;5.43;;;4.60;;
4565;SDS011;2295;51.050;14.608;2022-09-27T06:41:02;4.45;;;4.05;;
4565;SDS011;2295;51.050;14.608;2022-09-27T06:43:32;5.43;;;4.20;;
4565;SDS011;2295;51.050;14.608;2022-09-27T06:46:02;5.05;;;3.85;;
4565;SDS011;2295;51.050;14.608;2022-09-27T06:48:31;4.90;;;4.40;;
4565;SDS011;2295;51.050;14.608;2022-09-27T06:51:01;7.88;;;4.65;;
4565;SDS011;2295;51.050;14.608;2022-09-27T06:53:30;7.03;;;4.53;;
4565;SDS011;2295;51.050;14.608;2022-09-27T06:55:59;5.80;;;4.85;;
4565;SDS011;2295;51.050;14.608;2022-09-27T06:58:28;5.10;;;4.15;;
4565;SDS011;2295;51.050;14.608;2022-09-27T07:01:15;6.00;;;4.57;;
4565;SDS011;2295;51.050;14.608;2022-09-27T07:03:48;5.38;;;3.70;;
4565;SDS011;2295;51.050;14.608;2022-09-27T07:06:17;4.30;;;3.92;;
4565;SDS011;2295;51.050;14.608;2022-09-27T07:08:48;9.23;;;5.07;;
4565;SDS011;2295;51.050;14.608;2022-09-27T07:11:18;4.68;;;4.15;;
4565;SDS011;2295;51.050;14.608;2022-09-27T07:13:49;7.57;;;4.20;;
4565;SDS011;2295;51.050;14.608;2022-09-27T07:16:18;4.10;;;3.63;;
4565;SDS011;2295;51.050;14.608;2022-09-27T07:18:48;4.75;;;3.95;;
4565;SDS011;2295;51.050;14.608;2022-09-27T07:21:17;3.40;;;3.10;;
4565;SDS011;2295;51.050;14.608;2022-09-27T07:23:45;2.92;;;2.60;;
4565;SDS011;2295;51.050;14.608;2022-09-27T07:26:13;3.10;;;2.90;;
4565;SDS011;2295;51.050;14.608;2022-09-27T07:28:42;3.85;;;3.35;;
4565;SDS011;2295;51.050;14.608;2022-09-27T07:31:11;3.35;;;2.83;;
4565;SDS011;2295;51.050;14.608;2022-09-27T07:33:41;5.80;;;3.47;;
4565;SDS011;2295;51.050;14.608;2022-09-27T07:36:10;4.47;;;3.55;;
4565;SDS011;2295;51.050;14.608;2022-09-27T07:38:39;3.20;;;2.85;;
4565;SDS011;2295;51.050;14.608;2022-09-27T07:41:08;3.03;;;2.40;;
4565;SDS011;2295;51.050;14.608;2022-09-27T07:43:38;5.80;;;2.67;;
4565;SDS011;2295;51.050;14.608;2022-09-27T07:46:06;3.63;;;3.05;;
4565;SDS011;2295;51.050;14.608;2022-09-27T07:48:36;2.58;;;2.38;;
4565;SDS011;2295;51.050;14.608;2022-09-27T07:51:06;5.63;;;2.50;;
4565;SDS011;2295;51.050;14.608;2022-09-27T07:53:36;3.25;;;2.20;;
4565;SDS011;2295;51.050;14.608;2022-09-27T07:56:06;2.40;;;2.20;;
4565;SDS011;2295;51.050;14.608;2022-09-27T07:58:35;2.45;;;2.28;;
4565;SDS011;2295;51.050;14.608;2022-09-27T08:01:03;2.45;;;2.25;;
4565;SDS011;2295;51.050;14.608;2022-09-27T08:03:31;2.65;;;2.42;;
4565;SDS011;2295;51.050;14.608;2022-09-27T08:06:01;3.15;;;2.70;;
4565;SDS011;2295;51.050;14.608;2022-09-27T08:08:31;2.33;;;2.20;;
4565;SDS011;2295;51.050;14.608;2022-09-27T08:11:00;2.25;;;2.05;;
4565;SDS011;2295;51.050;14.608;2022-09-27T08:13:28;3.67;;;1.90;;
4565;SDS011;2295;51.050;14.608;2022-09-27T08:16:00;2.58;;;2.22;;
4565;SDS011;2295;51.050;14.608;2022-09-27T08:18:29;3.47;;;2.25;;
4565;SDS011;2295;51.050;14.608;2022-09-27T08:20:57;4.20;;;3.17;;
4565;SDS011;2295;51.050;14.608;2022-09-27T08:23:26;2.35;;;2.15;;
4565;SDS011;2295;51.050;14.608;2022-09-27T08:25:56;2.30;;;2.03;;
4565;SDS011;2295;51.050;14.608;2022-09-27T08:28:25;2.60;;;1.75;;
4565;SDS011;2295;51.050;14.608;2022-09-27T08:30:53;6.82;;;1.65;;
4565;SDS011;2295;51.050;14.608;2022-09-27T08:33:24;2.45;;;2.15;;
4565;SDS011;2295;51.050;14.608;2022-09-27T08:35:58;2.05;;;1.77;;
4565;SDS011;2295;51.050;14.608;2022-09-27T08:38:27;1.30;;;1.20;;
4565;SDS011;2295;51.050;14.608;2022-09-27T08:40:57;1.95;;;1.80;;
4565;SDS011;2295;51.050;14.608;2022-09-27T08:43:33;1.50;;;1.40;;
4565;SDS011;2295;51.050;14.608;2022-09-27T08:46:08;1.70;;;1.60;;
4565;SDS011;2295;51.050;14.608;2022-09-27T08:48:42;2.40;;;2.20;;
4565;SDS011;2295;51.050;14.608;2022-09-27T08:51:13;2.08;;;1.40;;
4565;SDS011;2295;51.050;14.608;2022-09-27T08:53:45;2.05;;;1.80;;
4565;SDS011;2295;51.050;14.608;2022-09-27T08:56:20;2.50;;;1.75;;
4565;SDS011;2295;51.050;14.608;2022-09-27T08:58:50;2.30;;;2.20;;
4565;SDS011;2295;51.050;14.608;2022-09-27T09:01:23;1.92;;;1.73;;
4565;SDS011;2295;51.050;14.608;2022-09-27T09:03:55;2.47;;;1.95;;
4565;SDS011;2295;51.050;14.608;2022-09-27T09:06:27;1.95;;;1.75;;
4565;SDS011;2295;51.050;14.608;2022-09-27T09:09:06;4.22;;;2.03;;
4565;SDS011;2295;51.050;14.608;2022-09-27T09:11:48;4.55;;;1.75;;
4565;SDS011;2295;51.050;14.608;2022-09-27T09:14:48;3.08;;;1.60;;
4565;SDS011;2295;51.050;14.608;2022-09-27T09:17:34;2.80;;;1.50;;
4565;SDS011;2295;51.050;14.608;2022-09-27T09:20:21;2.72;;;1.38;;
4565;SDS011;2295;51.050;14.608;2022-09-27T09:25:49;1.98;;;1.88;;
4565;SDS011;2295;51.050;14.608;2022-09-27T09:28:29;1.70;;;1.60;;
4565;SDS011;2295;51.050;14.608;2022-09-27T09:31:07;1.35;;;1.25;;
4565;SDS011;2295;51.050;14.608;2022-09-27T09:33:43;1.60;;;1.50;;
4565;SDS011;2295;51.050;14.608;2022-09-27T09:36:18;2.17;;;1.40;;
4565;SDS011;2295;51.050;14.608;2022-09-27T09:38:52;3.38;;;1.40;;
4565;SDS011;2295;51.050;14.608;2022-09-27T09:41:24;1.40;;;1.30;;
4565;SDS011;2295;51.050;14.608;2022-09-27T09:43:58;3.65;;;1.50;;
4565;SDS011;2295;51.050;14.608;2022-09-27T09:46:32;1.80;;;1.40;;
4565;SDS011;2295;51.050;14.608;2022-09-27T09:49:13;1.35;;;1.25;;
4565;SDS011;2295;51.050;14.608;2022-09-27T09:51:45;1.85;;;1.25;;
4565;SDS011;2295;51.050;14.608;2022-09-27T09:54:19;1.33;;;1.23;;
4565;SDS011;2295;51.050;14.608;2022-09-27T09:56:54;1.35;;;1.25;;
4565;SDS011;2295;51.050;14.608;2022-09-27T09:59:33;1.25;;;1.15;;
4565;SDS011;2295;51.050;14.608;2022-09-27T10:02:13;1.48;;;1.38;;
4565;SDS011;2295;51.050;14.608;2022-09-27T10:04:52;1.27;;;1.20;;
4565;SDS011;2295;51.050;14.608;2022-09-27T10:07:20;2.28;;;1.10;;
4565;SDS011;2295;51.050;14.608;2022-09-27T10:09:50;1.10;;;1.00;;
4565;SDS011;2295;51.050;14.608;2022-09-27T10:12:21;1.75;;;1.08;;
4565;SDS011;2295;51.050;14.608;2022-09-27T10:14:51;1.30;;;1.20;;
4565;SDS011;2295;51.050;14.608;2022-09-27T10:17:23;1.30;;;1.20;;
4565;SDS011;2295;51.050;14.608;2022-09-27T10:19:54;1.73;;;1.27;;
4565;SDS011;2295;51.050;14.608;2022-09-27T10:22:26;1.30;;;1.02;;
4565;SDS011;2295;51.050;14.608;2022-09-27T10:24:58;3.78;;;1.35;;
4565;SDS011;2295;51.050;14.608;2022-09-27T10:27:36;1.35;;;1.08;;
4565;SDS011;2295;51.050;14.608;2022-09-27T10:30:19;1.13;;;1.02;;
4565;SDS011;2295;51.050;14.608;2022-09-27T10:32:55;1.50;;;0.90;;
4565;SDS011;2295;51.050;14.608;2022-09-27T10:35:34;1.70;;;0.90;;
4565;SDS011;2295;51.050;14.608;2022-09-27T10:40:50;2.45;;;1.10;;
4565;SDS011;2295;51.050;14.608;2022-09-27T10:43:25;1.20;;;0.90;;
4565;SDS011;2295;51.050;14.608;2022-09-27T10:46:00;1.20;;;0.90;;
4565;SDS011;2295;51.050;14.608;2022-09-27T10:48:37;1.17;;;1.08;;
4565;SDS011;2295;51.050;14.608;2022-09-27T10:51:18;1.30;;;1.20;;
4565;SDS011;2295;51.050;14.608;2022-09-27T10:53:51;1.92;;;1.02;;
4565;SDS011;2295;51.050;14.608;2022-09-27T10:56:25;13.32;;;1.38;;
4565;SDS011;2295;51.050;14.608;2022-09-27T10:58:56;6.38;;;3.90;;
4565;SDS011;2295;51.050;14.608;2022-09-27T11:01:36;3.40;;;3.20;;
4565;SDS011;2295;51.050;14.608;2022-09-27T11:04:14;4.25;;;3.97;;
4565;SDS011;2295;51.050;14.608;2022-09-27T11:06:46;2.10;;;1.90;;
4565;SDS011;2295;51.050;14.608;2022-09-27T11:09:17;3.05;;;1.70;;
4565;SDS011;2295;51.050;14.608;2022-09-27T11:11:49;1.98;;;1.88;;
4565;SDS011;2295;51.050;14.608;2022-09-27T11:14:19;1.50;;;1.40;;
4565;SDS011;2295;51.050;14.608;2022-09-27T11:19:56;0.80;;;0.80;;
4565;SDS011;2295;51.050;14.608;2022-09-27T11:23:00;1.35;;;0.90;;
4565;SDS011;2295;51.050;14.608;2022-09-27T11:25:43;0.73;;;0.70;;
4565;SDS011;2295;51.050;14.608;2022-09-27T11:28:25;2.95;;;0.80;;
